createdAt,value
2018-09-17T00:00:15.477Z,8.00
2018-09-17T00:01:15.453Z,8.00
2018-09-17T00:02:15.456Z,7.70
2018-09-17T00:03:15.408Z,8.30
2018-09-17T00:04:15.400Z,7.50
2018-09-17T00:05:15.387Z,8.20
2018-09-17T00:06:15.432Z,8.20
2018-09-17T00:07:15.360Z,7.60
2018-09-17T00:08:15.357Z,7.80
2018-09-17T00:09:15.336Z,7.50
2018-09-17T00:10:15.374Z,8.20
2018-09-17T00:11:15.324Z,7.90
2018-09-17T00:12:15.259Z,8.00
2018-09-17T00:13:15.228Z,7.60
2018-09-17T00:14:15.204Z,8.10
2018-09-17T00:15:15.293Z,7.60
2018-09-17T00:16:15.207Z,7.80
2018-09-17T00:17:15.224Z,8.40
2018-09-17T00:18:15.210Z,7.40
2018-09-17T00:19:15.184Z,7.70
2018-09-17T00:20:15.086Z,8.30
2018-09-17T00:21:15.140Z,7.90
2018-09-17T00:22:15.100Z,8.20
2018-09-17T00:23:15.093Z,7.70
2018-09-17T00:24:15.117Z,7.50
2018-09-17T00:25:15.104Z,7.90
2018-09-17T00:26:15.140Z,8.50
2018-09-17T00:27:15.127Z,7.90
2018-09-17T00:28:15.039Z,7.90
2018-09-17T00:29:15.021Z,7.80
2018-09-17T00:30:15.016Z,7.90
2018-09-17T00:31:14.995Z,7.60
2018-09-17T00:32:14.974Z,7.50
2018-09-17T00:33:14.933Z,7.80
2018-09-17T00:34:14.955Z,7.60
2018-09-17T00:35:14.968Z,8.10
2018-09-17T00:36:14.915Z,8.00
2018-09-17T00:37:14.922Z,7.90
2018-09-17T00:38:14.853Z,8.40
2018-09-17T00:39:14.902Z,8.10
2018-09-17T00:40:14.882Z,8.60
2018-09-17T00:41:14.880Z,7.80
2018-09-17T00:42:14.906Z,7.90
2018-09-17T00:43:14.816Z,8.20
2018-09-17T00:44:14.823Z,8.20
2018-09-17T00:45:14.768Z,8.30
2018-09-17T00:46:14.762Z,7.70
2018-09-17T00:47:14.781Z,7.10
2018-09-17T00:48:14.759Z,8.20
2018-09-17T00:49:14.739Z,8.40
2018-09-17T00:50:14.650Z,7.50
2018-09-17T00:51:14.637Z,7.80
2018-09-17T00:52:14.635Z,8.10
2018-09-17T00:53:14.606Z,7.80
2018-09-17T00:54:14.590Z,7.60
2018-09-17T00:55:14.577Z,7.90
2018-09-17T00:56:14.563Z,7.80
2018-09-17T00:57:14.551Z,8.20
2018-09-17T00:58:14.534Z,8.30
2018-09-17T00:59:14.518Z,7.90
2018-09-17T01:00:14.502Z,8.60
2018-09-17T01:01:14.488Z,8.20
2018-09-17T01:02:14.473Z,8.30
2018-09-17T01:03:14.460Z,8.20
2018-09-17T01:04:14.444Z,7.90
2018-09-17T01:05:14.433Z,8.50
2018-09-17T01:06:14.417Z,8.40
2018-09-17T01:07:14.403Z,8.90
2018-09-17T01:08:14.385Z,8.50
2018-09-17T01:09:14.371Z,9.10
2018-09-17T01:10:14.356Z,8.60
2018-09-17T01:11:14.342Z,8.70
2018-09-17T01:12:14.327Z,8.30
2018-09-17T01:13:14.310Z,8.30
2018-09-17T01:14:14.298Z,8.20
2018-09-17T01:15:14.281Z,8.40
2018-09-17T01:16:14.267Z,8.40
2018-09-17T01:17:14.252Z,8.20
2018-09-17T01:18:14.236Z,8.30
2018-09-17T01:19:14.225Z,7.70
2018-09-17T01:20:14.207Z,8.50
2018-09-17T01:21:14.193Z,8.10
2018-09-17T01:22:14.182Z,8.10
2018-09-17T01:23:14.320Z,7.90
2018-09-17T01:24:14.190Z,7.90
2018-09-17T01:25:14.229Z,8.30
2018-09-17T01:26:14.216Z,8.90
2018-09-17T01:27:14.191Z,9.00
2018-09-17T01:28:14.142Z,8.80
2018-09-17T01:29:14.173Z,9.00
2018-09-17T01:30:14.157Z,8.90
2018-09-17T01:31:14.146Z,9.20
2018-09-17T01:32:14.058Z,9.10
2018-09-17T01:33:14.111Z,9.00
2018-09-17T01:34:14.063Z,8.40
2018-09-17T01:35:14.096Z,8.80
2018-09-17T01:36:14.010Z,9.00
2018-09-17T01:37:14.061Z,9.70
2018-09-17T01:38:14.031Z,9.10
2018-09-17T01:39:14.007Z,10.00
2018-09-17T01:40:13.985Z,8.90
2018-09-17T01:41:13.947Z,9.40
2018-09-17T01:42:13.910Z,10.40
2018-09-17T01:43:13.928Z,9.80
2018-09-17T01:44:14.002Z,9.00
2018-09-17T01:45:13.926Z,9.40
2018-09-17T01:46:13.952Z,10.30
2018-09-17T01:47:13.889Z,10.40
2018-09-17T01:48:13.856Z,9.90
2018-09-17T01:49:13.796Z,9.80
2018-09-17T01:50:13.845Z,10.00
2018-09-17T01:51:13.814Z,9.30
2018-09-17T01:52:13.816Z,9.50
2018-09-17T01:53:13.780Z,9.60
2018-09-17T01:54:13.785Z,9.90
2018-09-17T01:55:13.682Z,10.00
2018-09-17T01:56:13.753Z,9.70
2018-09-17T01:57:13.743Z,10.00
2018-09-17T01:58:13.673Z,10.30
2018-09-17T01:59:13.678Z,9.80
2018-09-17T02:00:13.643Z,9.70
2018-09-17T02:01:13.673Z,10.30
2018-09-17T02:02:13.648Z,9.60
2018-09-17T02:03:13.642Z,10.10
2018-09-17T02:04:13.614Z,9.90
2018-09-17T02:05:13.576Z,10.30
2018-09-17T02:06:13.539Z,9.60
2018-09-17T02:07:13.583Z,9.70
2018-09-17T02:08:13.547Z,9.40
2018-09-17T02:09:13.482Z,9.40
2018-09-17T02:10:13.608Z,9.20
2018-09-17T02:11:13.512Z,9.70
2018-09-17T02:12:13.431Z,9.90
2018-09-17T02:13:13.504Z,9.90
2018-09-17T02:14:13.481Z,10.60
2018-09-17T02:15:13.438Z,10.40
2018-09-17T02:16:13.451Z,9.40
2018-09-17T02:17:13.438Z,10.40
2018-09-17T02:18:13.375Z,10.20
2018-09-17T02:19:13.357Z,10.50
2018-09-17T02:20:13.435Z,9.60
2018-09-17T02:21:13.331Z,10.10
2018-09-17T02:22:13.375Z,10.30
2018-09-17T02:23:13.346Z,10.80
2018-09-17T02:24:13.351Z,10.00
2018-09-17T02:25:13.263Z,10.30
2018-09-17T02:26:13.307Z,10.10
2018-09-17T02:27:13.298Z,10.20
2018-09-17T02:28:13.180Z,10.20
2018-09-17T02:29:13.268Z,9.90
2018-09-17T02:30:13.307Z,9.70
2018-09-17T02:31:13.229Z,10.20
2018-09-17T02:32:13.133Z,9.30
2018-09-17T02:33:13.150Z,10.80
2018-09-17T02:34:13.188Z,9.90
2018-09-17T02:35:13.138Z,10.20
2018-09-17T02:36:13.088Z,10.30
2018-09-17T02:37:13.135Z,10.50
2018-09-17T02:38:13.133Z,10.00
2018-09-17T02:39:13.092Z,11.00
2018-09-17T02:40:13.115Z,11.00
2018-09-17T02:41:13.105Z,10.30
2018-09-17T02:42:13.041Z,10.20
2018-09-17T02:43:13.024Z,9.90
2018-09-17T02:44:13.022Z,10.30
2018-09-17T02:45:12.992Z,10.80
2018-09-17T02:46:13.043Z,9.90
2018-09-17T02:47:12.974Z,10.80
2018-09-17T02:48:12.969Z,10.00
2018-09-17T02:49:12.946Z,10.10
2018-09-17T02:50:12.884Z,10.40
2018-09-17T02:51:12.908Z,10.00
2018-09-17T02:52:12.820Z,10.50
2018-09-17T02:53:12.861Z,9.90
2018-09-17T02:54:12.816Z,10.40
2018-09-17T02:55:12.809Z,10.10
2018-09-17T02:56:12.787Z,9.80
2018-09-17T02:57:12.763Z,10.30
2018-09-17T02:58:12.745Z,10.70
2018-09-17T02:59:12.775Z,10.70
2018-09-17T03:00:12.767Z,10.10
2018-09-17T03:01:12.754Z,10.60
2018-09-17T03:02:12.747Z,10.80
2018-09-17T03:03:12.719Z,10.40
2018-09-17T03:04:12.677Z,9.70
2018-09-17T03:05:12.690Z,10.20
2018-09-17T03:06:12.713Z,10.30
2018-09-17T03:07:12.615Z,10.30
2018-09-17T03:08:12.648Z,10.90
2018-09-17T03:09:12.597Z,10.20
2018-09-17T03:10:12.634Z,10.30
2018-09-17T03:11:12.648Z,10.50
2018-09-17T03:12:12.581Z,9.80
2018-09-17T03:13:12.545Z,10.20
2018-09-17T03:14:12.523Z,10.40
2018-09-17T03:15:12.551Z,10.80
2018-09-17T03:16:12.508Z,9.90
2018-09-17T03:17:12.477Z,10.10
2018-09-17T03:18:12.489Z,10.30
2018-09-17T03:19:12.454Z,10.80
2018-09-17T03:20:12.445Z,10.10
2018-09-17T03:21:12.420Z,10.60
2018-09-17T03:22:12.467Z,10.70
2018-09-17T03:23:12.398Z,10.80
2018-09-17T03:24:12.394Z,10.10
2018-09-17T03:25:12.398Z,10.10
2018-09-17T03:26:12.288Z,10.70
2018-09-17T03:27:12.297Z,11.00
2018-09-17T03:28:12.350Z,11.00
2018-09-17T03:29:12.292Z,10.70
2018-09-17T03:30:12.303Z,10.90
2018-09-17T03:31:12.319Z,10.30
2018-09-17T03:32:12.327Z,11.60
2018-09-17T03:33:12.258Z,11.30
2018-09-17T03:34:12.253Z,10.80
2018-09-17T03:35:12.220Z,11.70
2018-09-17T03:36:12.185Z,10.60
2018-09-17T03:37:12.246Z,10.80
2018-09-17T03:38:12.135Z,11.20
2018-09-17T03:39:12.163Z,11.40
2018-09-17T03:40:12.065Z,10.90
2018-09-17T03:41:12.134Z,11.30
2018-09-17T03:42:12.132Z,10.80
2018-09-17T03:43:12.073Z,11.10
2018-09-17T03:44:12.025Z,11.40
2018-09-17T03:45:12.006Z,11.60
2018-09-17T03:46:12.070Z,10.80
2018-09-17T03:47:12.108Z,10.90
2018-09-17T03:48:12.063Z,11.60
2018-09-17T03:49:11.978Z,10.60
2018-09-17T03:50:11.943Z,11.70
2018-09-17T03:51:11.973Z,11.00
2018-09-17T03:52:11.987Z,12.40
2018-09-17T03:53:12.000Z,12.10
2018-09-17T03:54:11.907Z,12.00
2018-09-17T03:55:11.923Z,12.10
2018-09-17T03:56:11.911Z,11.70
2018-09-17T03:57:11.899Z,12.30
2018-09-17T03:58:11.865Z,12.10
2018-09-17T03:59:11.816Z,12.20
2018-09-17T04:00:11.849Z,12.10
2018-09-17T04:01:11.728Z,11.70
2018-09-17T04:02:11.749Z,11.40
2018-09-17T04:03:11.832Z,11.20
2018-09-17T04:04:11.735Z,11.70
2018-09-17T04:05:11.688Z,11.80
2018-09-17T04:06:11.687Z,11.70
2018-09-17T04:07:11.684Z,10.90
2018-09-17T04:08:11.682Z,11.20
2018-09-17T04:09:11.704Z,12.00
2018-09-17T04:10:11.731Z,12.20
2018-09-17T04:11:11.649Z,11.90
2018-09-17T04:12:11.598Z,13.10
2018-09-17T04:13:11.685Z,12.20
2018-09-17T04:14:11.632Z,12.40
2018-09-17T04:15:11.570Z,12.40
2018-09-17T04:16:11.558Z,12.00
2018-09-17T04:17:11.539Z,19.70
2018-09-17T04:18:11.550Z,16.70
2018-09-17T04:19:11.589Z,12.00
2018-09-17T04:20:11.427Z,16.60
2018-09-17T04:21:11.411Z,15.00
2018-09-17T04:22:11.405Z,14.70
2018-09-17T04:23:11.382Z,13.30
2018-09-17T04:24:11.363Z,13.60
2018-09-17T04:25:11.348Z,12.90
2018-09-17T04:26:11.336Z,13.00
2018-09-17T04:27:11.320Z,13.70
2018-09-17T04:28:11.302Z,12.90
2018-09-17T04:29:11.289Z,13.40
2018-09-17T04:30:11.269Z,13.30
2018-09-17T04:31:11.254Z,12.80
2018-09-17T04:32:11.238Z,12.60
2018-09-17T04:33:11.244Z,13.20
2018-09-17T04:34:11.214Z,12.40
2018-09-17T04:35:11.201Z,13.10
2018-09-17T04:36:11.174Z,12.50
2018-09-17T04:37:11.163Z,13.50
2018-09-17T04:38:11.143Z,12.60
2018-09-17T04:39:11.133Z,13.20
2018-09-17T04:40:11.121Z,13.30
2018-09-17T04:41:11.099Z,12.90
2018-09-17T04:42:11.083Z,13.70
2018-09-17T04:43:11.068Z,13.60
2018-09-17T04:44:11.050Z,13.40
2018-09-17T04:45:11.039Z,13.40
2018-09-17T04:46:11.015Z,12.60
2018-09-17T04:47:11.009Z,13.40
2018-09-17T04:48:10.997Z,12.70
2018-09-17T04:49:10.977Z,13.50
2018-09-17T04:50:10.954Z,13.20
2018-09-17T04:51:10.943Z,12.80
2018-09-17T04:52:10.925Z,13.40
2018-09-17T04:53:10.909Z,13.10
2018-09-17T04:54:10.890Z,13.40
2018-09-17T04:55:10.874Z,13.80
2018-09-17T04:56:10.858Z,13.20
2018-09-17T04:57:10.893Z,12.50
2018-09-17T04:58:10.824Z,13.10
2018-09-17T04:59:10.808Z,13.50
2018-09-17T05:00:10.796Z,13.30
2018-09-17T05:01:10.783Z,14.20
2018-09-17T05:02:10.764Z,14.40
2018-09-17T05:03:10.747Z,14.50
2018-09-17T05:04:10.734Z,14.20
2018-09-17T05:05:10.714Z,14.00
2018-09-17T05:06:10.702Z,14.10
2018-09-17T05:07:10.697Z,13.60
2018-09-17T05:08:10.667Z,13.40
2018-09-17T05:09:10.653Z,14.50
2018-09-17T05:10:10.637Z,13.70
2018-09-17T05:11:10.620Z,13.00
2018-09-17T05:12:10.605Z,14.00
2018-09-17T05:13:10.654Z,13.10
2018-09-17T05:14:10.571Z,13.70
2018-09-17T05:15:10.560Z,14.90
2018-09-17T05:16:10.541Z,13.90
2018-09-17T05:17:10.534Z,14.80
2018-09-17T05:18:10.509Z,14.40
2018-09-17T05:19:10.496Z,14.00
2018-09-17T05:20:10.481Z,15.00
2018-09-17T05:21:10.462Z,15.60
2018-09-17T05:22:10.444Z,14.90
2018-09-17T05:23:10.431Z,15.20
2018-09-17T05:24:10.414Z,15.70
2018-09-17T05:25:10.408Z,15.80
2018-09-17T05:26:10.384Z,16.40
2018-09-17T05:27:10.370Z,15.80
2018-09-17T05:28:10.355Z,15.40
2018-09-17T05:29:10.334Z,15.30
2018-09-17T05:30:10.321Z,14.90
2018-09-17T05:31:10.302Z,15.90
2018-09-17T05:32:10.287Z,15.40
2018-09-17T05:33:10.270Z,14.70
2018-09-17T05:34:10.254Z,15.20
2018-09-17T05:35:10.370Z,14.80
2018-09-17T05:36:10.229Z,14.00
2018-09-17T05:37:10.208Z,14.80
2018-09-17T05:38:10.193Z,14.50
2018-09-17T05:39:10.179Z,14.70
2018-09-17T05:40:10.177Z,15.20
2018-09-17T05:41:10.149Z,15.30
2018-09-17T05:42:10.132Z,16.00
2018-09-17T05:43:10.117Z,14.40
2018-09-17T05:44:10.100Z,15.40
2018-09-17T05:45:10.084Z,15.30
2018-09-17T05:46:10.073Z,14.80
2018-09-17T05:47:10.051Z,14.00
2018-09-17T05:48:10.038Z,14.50
2018-09-17T05:49:10.020Z,14.40
2018-09-17T05:50:10.007Z,14.30
2018-09-17T05:51:09.991Z,14.50
2018-09-17T05:52:09.975Z,14.00
2018-09-17T05:53:10.037Z,14.50
2018-09-17T05:54:10.026Z,13.90
2018-09-17T05:55:10.033Z,14.50
2018-09-17T05:56:09.987Z,13.70
2018-09-17T05:57:09.993Z,14.70
2018-09-17T05:58:09.966Z,14.70
2018-09-17T05:59:09.949Z,14.60
2018-09-17T06:00:09.896Z,13.80
2018-09-17T06:01:09.876Z,14.30
2018-09-17T06:02:09.816Z,13.70
2018-09-17T06:03:09.805Z,13.00
2018-09-17T06:04:09.786Z,14.10
2018-09-17T06:05:09.769Z,14.00
2018-09-17T06:06:09.899Z,14.10
2018-09-17T06:07:09.761Z,13.80
2018-09-17T06:08:09.733Z,14.30
2018-09-17T06:09:09.708Z,13.40
2018-09-17T06:10:09.695Z,14.30
2018-09-17T06:11:09.676Z,13.80
2018-09-17T06:12:09.662Z,14.20
2018-09-17T06:13:09.649Z,14.50
2018-09-17T06:14:09.629Z,13.70
2018-09-17T06:15:09.620Z,15.10
2018-09-17T06:16:09.600Z,13.50
2018-09-17T06:17:09.597Z,14.20
2018-09-17T06:18:09.575Z,14.30
2018-09-17T06:19:09.551Z,14.20
2018-09-17T06:20:09.541Z,14.90
2018-09-17T06:21:09.528Z,14.30
2018-09-17T06:22:09.508Z,14.80
2018-09-17T06:23:09.512Z,14.10
2018-09-17T06:24:09.478Z,14.80
2018-09-17T06:25:09.466Z,14.50
2018-09-17T06:26:09.445Z,13.60
2018-09-17T06:27:09.432Z,13.20
2018-09-17T06:28:09.417Z,14.70
2018-09-17T06:29:09.408Z,14.50
2018-09-17T06:30:09.390Z,14.90
2018-09-17T06:31:09.373Z,14.10
2018-09-17T06:32:09.359Z,14.30
2018-09-17T06:33:09.350Z,14.60
2018-09-17T06:34:09.327Z,14.10
2018-09-17T06:35:09.311Z,14.30
2018-09-17T06:36:09.361Z,14.80
2018-09-17T06:37:09.294Z,14.70
2018-09-17T06:38:09.268Z,13.90
2018-09-17T06:39:09.252Z,14.80
2018-09-17T06:40:09.238Z,14.30
2018-09-17T06:41:09.225Z,14.50
2018-09-17T06:42:09.210Z,14.40
2018-09-17T06:43:09.193Z,15.30
2018-09-17T06:44:09.179Z,15.30
2018-09-17T06:45:09.172Z,14.70
2018-09-17T06:46:09.158Z,14.20
2018-09-17T06:47:09.137Z,15.20
2018-09-17T06:48:09.123Z,15.00
2018-09-17T06:49:09.114Z,14.40
2018-09-17T06:50:09.095Z,14.70
2018-09-17T06:51:09.083Z,14.20
2018-09-17T06:52:09.073Z,14.70
2018-09-17T06:53:09.059Z,13.80
2018-09-17T06:54:09.049Z,13.90
2018-09-17T06:55:09.034Z,13.30
2018-09-17T06:56:09.023Z,13.70
2018-09-17T06:57:09.009Z,14.00
2018-09-17T06:58:09.003Z,13.20
2018-09-17T06:59:08.990Z,12.60
2018-09-17T07:00:08.980Z,13.30
2018-09-17T07:01:08.975Z,12.40
2018-09-17T07:02:08.960Z,13.90
2018-09-17T07:03:08.949Z,13.80
2018-09-17T07:04:08.940Z,12.50
2018-09-17T07:05:08.934Z,12.50
2018-09-17T07:06:08.943Z,12.50
2018-09-17T07:07:08.912Z,12.60
2018-09-17T07:08:08.906Z,12.80
2018-09-17T07:09:08.897Z,12.70
2018-09-17T07:10:08.891Z,12.40
2018-09-17T07:11:08.882Z,12.50
2018-09-17T07:12:08.883Z,12.30
2018-09-17T07:13:08.877Z,12.50
2018-09-17T07:14:08.867Z,12.40
2018-09-17T07:15:08.876Z,12.50
2018-09-17T07:16:08.861Z,12.40
2018-09-17T07:17:08.846Z,11.60
2018-09-17T07:18:08.944Z,12.60
2018-09-17T07:19:08.847Z,12.40
2018-09-17T07:20:08.835Z,12.10
2018-09-17T07:21:08.825Z,11.80
2018-09-17T07:22:08.821Z,12.50
2018-09-17T07:23:08.816Z,11.80
2018-09-17T07:24:08.816Z,12.00
2018-09-17T07:25:08.816Z,12.00
2018-09-17T07:26:08.810Z,11.10
2018-09-17T07:27:08.801Z,11.30
2018-09-17T07:28:08.799Z,12.10
2018-09-17T07:29:08.799Z,11.40
2018-09-17T07:30:08.794Z,11.30
2018-09-17T07:31:08.791Z,11.00
2018-09-17T07:32:08.790Z,11.30
2018-09-17T07:33:08.796Z,11.80
2018-09-17T07:34:08.787Z,12.40
2018-09-17T07:35:08.789Z,13.30
2018-09-17T07:36:08.868Z,13.90
2018-09-17T07:37:08.786Z,12.30
2018-09-17T07:38:08.786Z,11.30
2018-09-17T07:39:08.792Z,10.90
2018-09-17T07:40:08.789Z,10.70
2018-09-17T07:41:08.789Z,10.30
2018-09-17T07:42:08.789Z,11.20
2018-09-17T07:43:08.790Z,11.20
2018-09-17T07:44:08.789Z,11.80
2018-09-17T07:45:08.794Z,10.90
2018-09-17T07:46:08.793Z,11.10
2018-09-17T07:47:08.793Z,10.60
2018-09-17T07:48:08.794Z,10.70
2018-09-17T07:49:08.799Z,10.70
2018-09-17T07:50:08.798Z,10.00
2018-09-17T07:51:08.802Z,10.60
2018-09-17T07:52:08.802Z,10.40
2018-09-17T07:53:08.829Z,10.20
2018-09-17T07:54:08.806Z,11.00
2018-09-17T07:55:08.811Z,10.30
2018-09-17T07:56:08.814Z,10.50
2018-09-17T07:57:08.824Z,10.30
2018-09-17T07:58:08.815Z,10.40
2018-09-17T07:59:08.817Z,11.00
2018-09-17T08:00:08.819Z,10.30
2018-09-17T08:01:08.825Z,10.50
2018-09-17T08:02:08.827Z,10.50
2018-09-17T08:03:08.872Z,10.70
2018-09-17T08:04:08.831Z,10.30
2018-09-17T08:05:08.837Z,10.10
2018-09-17T08:06:08.849Z,11.70
2018-09-17T08:07:08.840Z,10.30
2018-09-17T08:08:08.846Z,10.70
2018-09-17T08:09:08.851Z,10.40
2018-09-17T08:10:08.849Z,10.20
2018-09-17T08:11:08.862Z,9.80
2018-09-17T08:12:08.857Z,10.60
2018-09-17T08:13:08.859Z,10.30
2018-09-17T08:14:08.859Z,10.30
2018-09-17T08:15:08.864Z,10.50
2018-09-17T08:16:08.872Z,10.60
2018-09-17T08:17:08.923Z,10.80
2018-09-17T08:18:08.871Z,11.10
2018-09-17T08:19:08.881Z,9.80
2018-09-17T08:20:08.877Z,11.60
2018-09-17T08:21:08.881Z,10.50
2018-09-17T08:22:08.882Z,10.80
2018-09-17T08:23:08.876Z,10.60
2018-09-17T08:24:08.877Z,10.30
2018-09-17T08:25:08.876Z,10.50
2018-09-17T08:26:08.879Z,11.20
2018-09-17T08:27:08.879Z,11.10
2018-09-17T08:28:08.879Z,9.90
2018-09-17T08:29:08.880Z,11.20
2018-09-17T08:30:08.879Z,10.00
2018-09-17T08:31:08.888Z,11.20
2018-09-17T08:32:08.881Z,10.80
2018-09-17T08:33:08.879Z,11.00
2018-09-17T08:34:08.876Z,10.40
2018-09-17T08:35:08.878Z,10.60
2018-09-17T08:36:08.878Z,10.80
2018-09-17T08:37:08.874Z,11.60
2018-09-17T08:38:08.901Z,11.20
2018-09-17T08:39:08.872Z,10.50
2018-09-17T08:40:08.872Z,10.40
2018-09-17T08:41:08.869Z,10.60
2018-09-17T08:42:08.873Z,10.60
2018-09-17T08:43:08.875Z,11.20
2018-09-17T08:44:08.865Z,10.60
2018-09-17T08:45:08.865Z,10.70
2018-09-17T08:46:08.859Z,10.80
2018-09-17T08:47:08.856Z,10.50
2018-09-17T08:48:08.863Z,10.70
2018-09-17T08:49:08.857Z,10.90
2018-09-17T08:50:08.859Z,10.80
2018-09-17T08:51:08.855Z,11.00
2018-09-17T08:52:08.888Z,10.40
2018-09-17T08:53:08.903Z,9.60
2018-09-17T08:54:08.845Z,10.00
2018-09-17T08:55:08.847Z,10.20
2018-09-17T08:56:08.845Z,10.00
2018-09-17T08:57:08.847Z,9.80
2018-09-17T08:58:08.897Z,9.00
2018-09-17T08:59:08.844Z,9.80
2018-09-17T09:00:08.844Z,9.00
2018-09-17T09:01:08.844Z,9.30
2018-09-17T09:02:08.845Z,8.90
2018-09-17T09:03:08.844Z,8.90
2018-09-17T09:04:08.844Z,9.50
2018-09-17T09:05:08.924Z,9.60
2018-09-17T09:06:08.844Z,10.10
2018-09-17T09:07:08.844Z,9.30
2018-09-17T09:08:08.873Z,8.80
2018-09-17T09:09:08.844Z,9.60
2018-09-17T09:10:08.845Z,9.70
2018-09-17T09:11:08.845Z,8.50
2018-09-17T09:12:08.844Z,9.80
2018-09-17T09:13:08.854Z,9.00
2018-09-17T09:14:08.840Z,8.70
2018-09-17T09:15:08.838Z,8.90
2018-09-17T09:16:08.842Z,8.30
2018-09-17T09:17:08.843Z,8.60
2018-09-17T09:18:08.841Z,8.30
2018-09-17T09:19:08.890Z,7.70
2018-09-17T09:20:08.841Z,7.80
2018-09-17T09:21:08.870Z,7.90
2018-09-17T09:22:08.836Z,7.60
2018-09-17T09:23:08.836Z,7.10
2018-09-17T09:24:08.832Z,7.50
2018-09-17T09:25:08.834Z,7.00
2018-09-17T09:26:08.885Z,7.30
2018-09-17T09:27:08.831Z,6.40
2018-09-17T09:28:08.829Z,6.80
2018-09-17T09:29:08.832Z,7.70
2018-09-17T09:30:08.825Z,6.90
2018-09-17T09:31:08.828Z,6.90
2018-09-17T09:32:08.825Z,7.40
2018-09-17T09:33:08.826Z,7.70
2018-09-17T09:34:08.823Z,7.70
2018-09-17T09:35:08.822Z,7.20
2018-09-17T09:36:08.821Z,7.30
2018-09-17T09:37:08.819Z,7.20
2018-09-17T09:38:08.828Z,7.30
2018-09-17T09:39:08.813Z,6.40
2018-09-17T09:40:08.819Z,6.20
2018-09-17T09:41:08.809Z,7.00
2018-09-17T09:42:08.806Z,6.50
2018-09-17T09:43:08.805Z,7.30
2018-09-17T09:44:08.803Z,6.80
2018-09-17T09:45:08.799Z,6.90
2018-09-17T09:46:08.799Z,7.00
2018-09-17T09:47:08.807Z,7.30
2018-09-17T09:48:08.797Z,7.00
2018-09-17T09:49:08.789Z,7.00
2018-09-17T09:50:08.788Z,6.80
2018-09-17T09:51:08.793Z,6.80
2018-09-17T09:52:08.783Z,7.00
2018-09-17T09:53:08.780Z,6.30
2018-09-17T09:54:08.777Z,6.40
2018-09-17T09:55:08.770Z,7.00
2018-09-17T09:56:08.771Z,6.30
2018-09-17T09:57:08.767Z,6.50
2018-09-17T09:58:08.765Z,6.20
2018-09-17T09:59:08.762Z,6.90
2018-09-17T10:00:08.758Z,6.30
2018-09-17T10:01:08.754Z,6.40
2018-09-17T10:02:08.751Z,5.70
2018-09-17T10:03:08.749Z,6.10
2018-09-17T10:04:08.745Z,6.10
2018-09-17T10:05:08.740Z,6.10
2018-09-17T10:06:08.739Z,6.50
2018-09-17T10:07:08.730Z,6.30
2018-09-17T10:08:08.728Z,7.20
2018-09-17T10:09:08.731Z,6.40
2018-09-17T10:10:08.722Z,6.40
2018-09-17T10:11:08.716Z,6.30
2018-09-17T10:12:08.713Z,6.60
2018-09-17T10:13:08.708Z,6.30
2018-09-17T10:14:08.708Z,6.10
2018-09-17T10:15:08.701Z,5.80
2018-09-17T10:16:08.697Z,6.30
2018-09-17T10:17:08.694Z,6.30
2018-09-17T10:18:08.690Z,5.60
2018-09-17T10:19:08.685Z,5.30
2018-09-17T10:20:08.688Z,5.10
2018-09-17T10:21:08.676Z,5.10
2018-09-17T10:22:08.675Z,4.70
2018-09-17T10:23:08.672Z,4.70
2018-09-17T10:24:08.670Z,4.80
2018-09-17T10:25:08.664Z,4.80
2018-09-17T10:26:08.671Z,4.20
2018-09-17T10:27:08.656Z,4.50
2018-09-17T10:28:08.650Z,4.30
2018-09-17T10:29:08.648Z,3.70
2018-09-17T10:30:08.643Z,4.00
2018-09-17T10:31:08.640Z,3.80
2018-09-17T10:32:08.640Z,3.60
2018-09-17T10:33:08.630Z,4.10
2018-09-17T10:34:08.629Z,4.10
2018-09-17T10:35:08.623Z,4.00
2018-09-17T10:36:08.617Z,4.00
2018-09-17T10:37:08.610Z,3.40
2018-09-17T10:38:08.605Z,3.80
2018-09-17T10:39:08.638Z,3.40
2018-09-17T10:40:08.605Z,3.50
2018-09-17T10:41:08.598Z,3.40
2018-09-17T10:42:08.593Z,3.40
2018-09-17T10:43:08.592Z,3.60
2018-09-17T10:44:08.585Z,4.30
2018-09-17T10:45:08.591Z,4.20
2018-09-17T10:46:08.572Z,3.70
2018-09-17T10:47:08.570Z,4.10
2018-09-17T10:48:08.569Z,4.10
2018-09-17T10:49:08.564Z,3.70
2018-09-17T10:50:08.558Z,3.40
2018-09-17T10:51:08.551Z,3.80
2018-09-17T10:52:08.561Z,3.50
2018-09-17T10:53:08.543Z,4.10
2018-09-17T10:54:08.544Z,3.30
2018-09-17T10:55:08.534Z,3.50
2018-09-17T10:56:08.525Z,3.40
2018-09-17T10:57:08.522Z,3.70
2018-09-17T10:58:08.522Z,4.10
2018-09-17T10:59:08.515Z,3.90
2018-09-17T11:00:08.509Z,3.90
2018-09-17T11:01:08.505Z,3.50
2018-09-17T11:02:08.501Z,3.20
2018-09-17T11:03:08.494Z,3.90
2018-09-17T11:04:08.487Z,4.00
2018-09-17T11:05:08.483Z,3.90
2018-09-17T11:06:08.489Z,4.20
2018-09-17T11:07:08.473Z,4.40
2018-09-17T11:08:08.482Z,4.10
2018-09-17T11:09:08.461Z,3.70
2018-09-17T11:10:08.459Z,3.50
2018-09-17T11:11:08.453Z,3.60
2018-09-17T11:12:08.448Z,4.40
2018-09-17T11:13:08.442Z,4.20
2018-09-17T11:14:08.440Z,3.90
2018-09-17T11:15:08.431Z,4.00
2018-09-17T11:16:08.431Z,3.70
2018-09-17T11:17:08.452Z,4.40
2018-09-17T11:18:08.419Z,4.00
2018-09-17T11:19:08.412Z,3.70
2018-09-17T11:20:08.404Z,4.10
2018-09-17T11:21:08.401Z,4.20
2018-09-17T11:22:08.397Z,4.10
2018-09-17T11:23:08.389Z,3.90
2018-09-17T11:24:08.391Z,4.70
2018-09-17T11:25:08.418Z,4.40
2018-09-17T11:26:08.376Z,4.40
2018-09-17T11:27:08.374Z,4.40
2018-09-17T11:28:08.364Z,3.70
2018-09-17T11:29:08.359Z,4.30
2018-09-17T11:30:08.355Z,4.40
2018-09-17T11:31:08.346Z,4.20
2018-09-17T11:32:08.343Z,3.90
2018-09-17T11:33:08.336Z,4.50
2018-09-17T11:34:08.331Z,4.40
2018-09-17T11:35:08.327Z,4.30
2018-09-17T11:36:08.322Z,4.30
2018-09-17T11:37:08.315Z,4.30
2018-09-17T11:38:08.316Z,4.30
2018-09-17T11:39:08.310Z,4.00
2018-09-17T11:40:08.309Z,4.50
2018-09-17T11:41:08.325Z,4.30
2018-09-17T11:42:08.291Z,4.60
2018-09-17T11:43:08.284Z,4.50
2018-09-17T11:44:08.284Z,4.20
2018-09-17T11:45:08.275Z,4.10
2018-09-17T11:46:08.269Z,4.70
2018-09-17T11:47:08.264Z,4.50
2018-09-17T11:48:08.276Z,4.30
2018-09-17T11:49:08.254Z,4.80
2018-09-17T11:50:08.248Z,4.60
2018-09-17T11:51:08.245Z,4.30
2018-09-17T11:52:08.239Z,4.50
2018-09-17T11:53:08.258Z,3.90
2018-09-17T11:54:08.275Z,4.40
2018-09-17T11:55:08.222Z,4.70
2018-09-17T11:56:08.218Z,4.20
2018-09-17T11:57:08.211Z,4.20
2018-09-17T11:58:08.208Z,4.00
2018-09-17T11:59:08.204Z,4.40
2018-09-17T12:00:08.195Z,4.40
2018-09-17T12:01:08.192Z,4.80
2018-09-17T12:02:08.196Z,4.80
2018-09-17T12:03:08.179Z,4.90
2018-09-17T12:04:08.184Z,4.50
2018-09-17T12:05:08.167Z,4.50
2018-09-17T12:06:08.168Z,4.10
2018-09-17T12:07:08.158Z,4.20
2018-09-17T12:08:08.154Z,4.50
2018-09-17T12:09:08.183Z,4.50
2018-09-17T12:10:08.138Z,4.70
2018-09-17T12:11:08.138Z,4.10
2018-09-17T12:12:08.136Z,4.20
2018-09-17T12:13:08.122Z,4.40
2018-09-17T12:14:08.117Z,3.60
2018-09-17T12:15:08.111Z,4.00
2018-09-17T12:16:08.106Z,3.90
2018-09-17T12:17:08.104Z,4.00
2018-09-17T12:18:08.093Z,4.30
2018-09-17T12:19:08.089Z,4.10
2018-09-17T12:20:08.083Z,4.20
2018-09-17T12:21:08.080Z,3.80
2018-09-17T12:22:08.077Z,4.20
2018-09-17T12:23:08.072Z,4.00
2018-09-17T12:24:08.073Z,4.00
2018-09-17T12:25:08.057Z,4.40
2018-09-17T12:26:08.054Z,3.60
2018-09-17T12:27:08.044Z,3.40
2018-09-17T12:28:08.045Z,4.00
2018-09-17T12:29:08.035Z,3.90
2018-09-17T12:30:08.037Z,3.70
2018-09-17T12:31:08.043Z,3.90
2018-09-17T12:32:08.020Z,3.60
2018-09-17T12:33:08.030Z,3.80
2018-09-17T12:34:08.015Z,3.80
2018-09-17T12:35:08.003Z,3.90
2018-09-17T12:36:08.004Z,4.10
2018-09-17T12:37:07.995Z,3.90
2018-09-17T12:38:07.985Z,4.20
2018-09-17T12:39:07.986Z,3.70
2018-09-17T12:40:07.977Z,3.90
2018-09-17T12:41:07.972Z,4.30
2018-09-17T12:42:07.968Z,4.50
2018-09-17T12:43:07.960Z,3.90
2018-09-17T12:44:07.963Z,4.40
2018-09-17T12:45:07.947Z,4.40
2018-09-17T12:46:07.950Z,4.00
2018-09-17T12:47:07.938Z,4.70
2018-09-17T12:48:07.933Z,4.30
2018-09-17T12:49:07.928Z,4.70
2018-09-17T12:50:07.925Z,4.20
2018-09-17T12:51:07.941Z,4.80
2018-09-17T12:52:07.912Z,3.70
2018-09-17T12:53:07.903Z,3.70
2018-09-17T12:54:07.899Z,3.80
2018-09-17T12:55:07.893Z,4.10
2018-09-17T12:56:07.889Z,3.80
2018-09-17T12:57:07.913Z,4.20
2018-09-17T12:58:07.881Z,4.00
2018-09-17T12:59:07.878Z,3.60
2018-09-17T13:00:07.865Z,3.70
2018-09-17T13:01:07.867Z,3.60
2018-09-17T13:02:07.859Z,4.00
2018-09-17T13:03:07.853Z,4.30
2018-09-17T13:04:07.846Z,4.20
2018-09-17T13:05:07.840Z,3.90